sensor_id;sensor_type;location;lat;lon;timestamp;P1;durP1;ratioP1;P2;durP2;ratioP2
56653;SDS011;45096;52.302;4.634;2023-07-31T00:02:10;4.28;;;2.83;;
56653;SDS011;45096;52.302;4.634;2023-07-31T00:04:35;5.63;;;2.65;;
56653;SDS011;45096;52.302;4.634;2023-07-31T00:07:01;5.97;;;2.90;;
56653;SDS011;45096;52.302;4.634;2023-07-31T00:09:26;7.38;;;3.15;;
56653;SDS011;45096;52.302;4.634;2023-07-31T00:11:51;8.50;;;3.50;;
56653;SDS011;45096;52.302;4.634;2023-07-31T00:14:18;8.85;;;3.65;;
56653;SDS011;45096;52.302;4.634;2023-07-31T00:16:43;8.30;;;3.58;;
56653;SDS011;45096;52.302;4.634;2023-07-31T00:19:09;7.15;;;2.97;;
56653;SDS011;45096;52.302;4.634;2023-07-31T00:21:34;9.93;;;3.33;;
56653;SDS011;45096;52.302;4.634;2023-07-31T00:24:00;14.88;;;4.70;;
56653;SDS011;45096;52.302;4.634;2023-07-31T00:26:25;8.52;;;3.58;;
56653;SDS011;45096;52.302;4.634;2023-07-31T00:28:50;14.77;;;4.38;;
56653;SDS011;45096;52.302;4.634;2023-07-31T00:31:17;10.27;;;3.67;;
56653;SDS011;45096;52.302;4.634;2023-07-31T00:33:43;10.82;;;4.10;;
56653;SDS011;45096;52.302;4.634;2023-07-31T00:36:08;14.15;;;4.20;;
56653;SDS011;45096;52.302;4.634;2023-07-31T00:38:33;10.57;;;3.47;;
56653;SDS011;45096;52.302;4.634;2023-07-31T00:40:59;7.03;;;3.80;;
56653;SDS011;45096;52.302;4.634;2023-07-31T00:43:24;13.15;;;4.00;;
56653;SDS011;45096;52.302;4.634;2023-07-31T00:45:50;6.65;;;3.65;;
56653;SDS011;45096;52.302;4.634;2023-07-31T00:48:17;8.02;;;3.45;;
56653;SDS011;45096;52.302;4.634;2023-07-31T00:50:42;10.38;;;4.22;;
56653;SDS011;45096;52.302;4.634;2023-07-31T00:53:07;8.15;;;4.25;;
56653;SDS011;45096;52.302;4.634;2023-07-31T00:55:33;9.40;;;4.28;;
56653;SDS011;45096;52.302;4.634;2023-07-31T00:57:58;11.13;;;3.72;;
56653;SDS011;45096;52.302;4.634;2023-07-31T01:00:24;10.50;;;4.32;;
56653;SDS011;45096;52.302;4.634;2023-07-31T01:02:49;8.25;;;3.63;;
56653;SDS011;45096;52.302;4.634;2023-07-31T01:05:17;16.42;;;5.10;;
56653;SDS011;45096;52.302;4.634;2023-07-31T01:07:45;9.80;;;4.47;;
56653;SDS011;45096;52.302;4.634;2023-07-31T01:10:15;13.65;;;4.90;;
56653;SDS011;45096;52.302;4.634;2023-07-31T01:12:42;10.73;;;4.90;;
56653;SDS011;45096;52.302;4.634;2023-07-31T01:15:10;13.45;;;5.35;;
56653;SDS011;45096;52.302;4.634;2023-07-31T01:17:36;8.93;;;4.50;;
56653;SDS011;45096;52.302;4.634;2023-07-31T01:20:02;14.32;;;5.32;;
56653;SDS011;45096;52.302;4.634;2023-07-31T01:22:39;6.88;;;4.10;;
56653;SDS011;45096;52.302;4.634;2023-07-31T01:25:16;10.25;;;5.22;;
56653;SDS011;45096;52.302;4.634;2023-07-31T01:27:51;15.63;;;5.10;;
56653;SDS011;45096;52.302;4.634;2023-07-31T01:30:20;16.13;;;4.90;;
56653;SDS011;45096;52.302;4.634;2023-07-31T01:32:47;10.40;;;5.05;;
56653;SDS011;45096;52.302;4.634;2023-07-31T01:35:13;18.48;;;6.22;;
56653;SDS011;45096;52.302;4.634;2023-07-31T01:37:38;19.15;;;6.22;;
56653;SDS011;45096;52.302;4.634;2023-07-31T01:40:04;13.50;;;4.97;;
56653;SDS011;45096;52.302;4.634;2023-07-31T01:42:31;15.65;;;5.00;;
56653;SDS011;45096;52.302;4.634;2023-07-31T01:44:57;14.35;;;5.30;;
56653;SDS011;45096;52.302;4.634;2023-07-31T01:47:23;15.55;;;5.90;;
56653;SDS011;45096;52.302;4.634;2023-07-31T01:49:48;14.20;;;4.90;;
56653;SDS011;45096;52.302;4.634;2023-07-31T01:52:14;14.75;;;6.00;;
56653;SDS011;45096;52.302;4.634;2023-07-31T01:54:39;14.73;;;5.50;;
56653;SDS011;45096;52.302;4.634;2023-07-31T01:57:05;13.65;;;5.70;;
56653;SDS011;45096;52.302;4.634;2023-07-31T01:59:31;13.05;;;5.05;;
56653;SDS011;45096;52.302;4.634;2023-07-31T02:01:58;14.52;;;5.90;;
56653;SDS011;45096;52.302;4.634;2023-07-31T02:04:23;13.18;;;5.43;;
56653;SDS011;45096;52.302;4.634;2023-07-31T02:06:49;14.75;;;6.78;;
56653;SDS011;45096;52.302;4.634;2023-07-31T02:09:14;11.20;;;5.53;;
56653;SDS011;45096;52.302;4.634;2023-07-31T02:11:39;13.38;;;6.05;;
56653;SDS011;45096;52.302;4.634;2023-07-31T02:14:05;13.60;;;5.78;;
56653;SDS011;45096;52.302;4.634;2023-07-31T02:16:30;17.42;;;5.60;;
56653;SDS011;45096;52.302;4.634;2023-07-31T02:18:57;14.27;;;6.15;;
56653;SDS011;45096;52.302;4.634;2023-07-31T02:21:22;20.13;;;6.32;;
56653;SDS011;45096;52.302;4.634;2023-07-31T02:23:48;17.92;;;6.25;;
56653;SDS011;45096;52.302;4.634;2023-07-31T02:26:13;18.20;;;6.10;;
56653;SDS011;45096;52.302;4.634;2023-07-31T02:28:39;15.77;;;5.07;;
56653;SDS011;45096;52.302;4.634;2023-07-31T02:31:04;13.43;;;5.45;;
56653;SDS011;45096;52.302;4.634;2023-07-31T02:33:29;19.38;;;5.85;;
56653;SDS011;45096;52.302;4.634;2023-07-31T02:35:56;16.27;;;5.43;;
56653;SDS011;45096;52.302;4.634;2023-07-31T02:38:21;15.30;;;5.70;;
56653;SDS011;45096;52.302;4.634;2023-07-31T02:40:47;13.63;;;5.68;;
56653;SDS011;45096;52.302;4.634;2023-07-31T02:43:12;16.27;;;5.55;;
56653;SDS011;45096;52.302;4.634;2023-07-31T02:45:38;15.45;;;6.20;;
56653;SDS011;45096;52.302;4.634;2023-07-31T02:48:03;13.27;;;5.75;;
56653;SDS011;45096;52.302;4.634;2023-07-31T02:50:29;15.65;;;6.43;;
56653;SDS011;45096;52.302;4.634;2023-07-31T02:52:55;11.48;;;5.68;;
56653;SDS011;45096;52.302;4.634;2023-07-31T02:55:21;14.30;;;6.15;;
56653;SDS011;45096;52.302;4.634;2023-07-31T02:57:46;17.83;;;7.07;;
56653;SDS011;45096;52.302;4.634;2023-07-31T03:00:12;16.55;;;6.82;;
56653;SDS011;45096;52.302;4.634;2023-07-31T03:02:37;13.88;;;5.60;;
56653;SDS011;45096;52.302;4.634;2023-07-31T03:05:03;15.57;;;6.22;;
56653;SDS011;45096;52.302;4.634;2023-07-31T03:07:29;20.98;;;6.72;;
56653;SDS011;45096;52.302;4.634;2023-07-31T03:09:55;16.17;;;6.10;;
56653;SDS011;45096;52.302;4.634;2023-07-31T03:12:21;15.05;;;5.63;;
56653;SDS011;45096;52.302;4.634;2023-07-31T03:14:46;20.48;;;6.70;;
56653;SDS011;45096;52.302;4.634;2023-07-31T03:17:12;15.48;;;7.20;;
56653;SDS011;45096;52.302;4.634;2023-07-31T03:19:37;17.10;;;6.70;;
56653;SDS011;45096;52.302;4.634;2023-07-31T03:22:02;15.25;;;6.00;;
56653;SDS011;45096;52.302;4.634;2023-07-31T03:24:28;21.23;;;7.00;;
56653;SDS011;45096;52.302;4.634;2023-07-31T03:26:55;21.40;;;6.95;;
56653;SDS011;45096;52.302;4.634;2023-07-31T03:29:20;18.95;;;6.80;;
56653;SDS011;45096;52.302;4.634;2023-07-31T03:31:46;16.55;;;6.30;;
56653;SDS011;45096;52.302;4.634;2023-07-31T03:34:11;19.33;;;6.38;;
56653;SDS011;45096;52.302;4.634;2023-07-31T03:36:37;18.83;;;6.65;;
56653;SDS011;45096;52.302;4.634;2023-07-31T03:39:02;18.25;;;6.50;;
56653;SDS011;45096;52.302;4.634;2023-07-31T03:41:28;15.45;;;6.25;;
56653;SDS011;45096;52.302;4.634;2023-07-31T03:43:55;14.85;;;5.60;;
56653;SDS011;45096;52.302;4.634;2023-07-31T03:46:20;21.67;;;6.55;;
56653;SDS011;45096;52.302;4.634;2023-07-31T03:48:45;15.73;;;9.10;;
56653;SDS011;45096;52.302;4.634;2023-07-31T03:51:11;33.63;;;17.73;;
56653;SDS011;45096;52.302;4.634;2023-07-31T03:53:36;29.55;;;16.85;;
56653;SDS011;45096;52.302;4.634;2023-07-31T03:56:02;20.23;;;11.05;;
56653;SDS011;45096;52.302;4.634;2023-07-31T03:58:27;17.42;;;9.20;;
56653;SDS011;45096;52.302;4.634;2023-07-31T04:00:54;14.43;;;7.32;;
56653;SDS011;45096;52.302;4.634;2023-07-31T04:03:19;17.73;;;7.43;;
56653;SDS011;45096;52.302;4.634;2023-07-31T04:05:45;16.88;;;7.20;;
56653;SDS011;45096;52.302;4.634;2023-07-31T04:08:10;18.50;;;6.68;;
56653;SDS011;45096;52.302;4.634;2023-07-31T04:10:36;19.23;;;6.85;;
56653;SDS011;45096;52.302;4.634;2023-07-31T04:13:01;17.38;;;5.93;;
56653;SDS011;45096;52.302;4.634;2023-07-31T04:15:27;16.20;;;6.57;;
56653;SDS011;45096;52.302;4.634;2023-07-31T04:17:53;14.70;;;5.57;;
56653;SDS011;45096;52.302;4.634;2023-07-31T04:20:19;13.80;;;5.13;;
56653;SDS011;45096;52.302;4.634;2023-07-31T04:22:44;14.73;;;5.07;;
56653;SDS011;45096;52.302;4.634;2023-07-31T04:25:10;10.20;;;3.95;;
56653;SDS011;45096;52.302;4.634;2023-07-31T04:27:35;10.93;;;4.43;;
56653;SDS011;45096;52.302;4.634;2023-07-31T04:30:00;9.57;;;3.65;;
56653;SDS011;45096;52.302;4.634;2023-07-31T04:32:26;5.38;;;2.80;;
56653;SDS011;45096;52.302;4.634;2023-07-31T04:34:53;6.50;;;3.67;;
56653;SDS011;45096;52.302;4.634;2023-07-31T04:37:18;7.72;;;3.13;;
56653;SDS011;45096;52.302;4.634;2023-07-31T04:39:43;6.80;;;4.88;;
56653;SDS011;45096;52.302;4.634;2023-07-31T04:42:09;11.68;;;7.75;;
56653;SDS011;45096;52.302;4.634;2023-07-31T04:44:34;10.57;;;7.68;;
56653;SDS011;45096;52.302;4.634;2023-07-31T04:47:00;6.45;;;4.20;;
56653;SDS011;45096;52.302;4.634;2023-07-31T04:49:25;8.30;;;3.70;;
56653;SDS011;45096;52.302;4.634;2023-07-31T04:51:52;6.10;;;2.95;;
56653;SDS011;45096;52.302;4.634;2023-07-31T04:54:17;3.90;;;2.63;;
56653;SDS011;45096;52.302;4.634;2023-07-31T04:56:43;5.43;;;2.35;;
56653;SDS011;45096;52.302;4.634;2023-07-31T04:59:08;5.97;;;2.22;;
56653;SDS011;45096;52.302;4.634;2023-07-31T05:01:34;3.80;;;2.10;;
56653;SDS011;45096;52.302;4.634;2023-07-31T05:03:59;3.28;;;2.03;;
56653;SDS011;45096;52.302;4.634;2023-07-31T05:06:25;5.50;;;2.20;;
56653;SDS011;45096;52.302;4.634;2023-07-31T05:08:51;12.35;;;8.27;;
56653;SDS011;45096;52.302;4.634;2023-07-31T05:11:17;17.80;;;13.00;;
56653;SDS011;45096;52.302;4.634;2023-07-31T05:13:42;12.32;;;7.13;;
56653;SDS011;45096;52.302;4.634;2023-07-31T05:16:08;4.93;;;4.00;;
56653;SDS011;45096;52.302;4.634;2023-07-31T05:18:33;6.60;;;3.53;;
56653;SDS011;45096;52.302;4.634;2023-07-31T05:20:59;4.40;;;2.92;;
56653;SDS011;45096;52.302;4.634;2023-07-31T05:23:24;4.43;;;2.67;;
56653;SDS011;45096;52.302;4.634;2023-07-31T05:25:51;4.55;;;2.40;;
56653;SDS011;45096;52.302;4.634;2023-07-31T05:28:16;5.15;;;2.40;;
56653;SDS011;45096;52.302;4.634;2023-07-31T05:30:42;6.10;;;2.60;;
56653;SDS011;45096;52.302;4.634;2023-07-31T05:33:07;2.60;;;1.92;;
56653;SDS011;45096;52.302;4.634;2023-07-31T05:35:32;4.57;;;2.35;;
56653;SDS011;45096;52.302;4.634;2023-07-31T05:37:58;4.80;;;1.90;;
56653;SDS011;45096;52.302;4.634;2023-07-31T05:40:23;2.97;;;2.17;;
56653;SDS011;45096;52.302;4.634;2023-07-31T05:42:50;6.00;;;3.30;;
56653;SDS011;45096;52.302;4.634;2023-07-31T05:45:16;15.98;;;12.02;;
56653;SDS011;45096;52.302;4.634;2023-07-31T05:47:41;9.70;;;6.45;;
56653;SDS011;45096;52.302;4.634;2023-07-31T05:50:07;6.53;;;3.85;;
56653;SDS011;45096;52.302;4.634;2023-07-31T05:52:33;5.90;;;3.38;;
56653;SDS011;45096;52.302;4.634;2023-07-31T05:54:58;2.80;;;2.17;;
56653;SDS011;45096;52.302;4.634;2023-07-31T05:57:24;4.22;;;2.58;;
56653;SDS011;45096;52.302;4.634;2023-07-31T05:59:50;5.28;;;2.28;;
56653;SDS011;45096;52.302;4.634;2023-07-31T06:02:16;5.38;;;2.08;;
56653;SDS011;45096;52.302;4.634;2023-07-31T06:04:41;2.72;;;2.00;;
56653;SDS011;45096;52.302;4.634;2023-07-31T06:07:07;4.45;;;2.38;;
56653;SDS011;45096;52.302;4.634;2023-07-31T06:09:32;5.80;;;2.05;;
56653;SDS011;45096;52.302;4.634;2023-07-31T06:11:57;8.18;;;2.10;;
56653;SDS011;45096;52.302;4.634;2023-07-31T06:14:23;3.55;;;2.10;;
56653;SDS011;45096;52.302;4.634;2023-07-31T06:16:50;6.57;;;2.63;;
56653;SDS011;45096;52.302;4.634;2023-07-31T06:19:15;7.40;;;2.72;;
56653;SDS011;45096;52.302;4.634;2023-07-31T06:21:40;8.68;;;3.08;;
56653;SDS011;45096;52.302;4.634;2023-07-31T06:24:06;9.38;;;2.75;;
56653;SDS011;45096;52.302;4.634;2023-07-31T06:26:31;5.18;;;2.55;;
56653;SDS011;45096;52.302;4.634;2023-07-31T06:28:57;5.30;;;2.60;;
56653;SDS011;45096;52.302;4.634;2023-07-31T06:31:22;6.68;;;2.47;;
56653;SDS011;45096;52.302;4.634;2023-07-31T06:33:49;7.97;;;2.75;;
56653;SDS011;45096;52.302;4.634;2023-07-31T06:36:14;4.20;;;2.50;;
56653;SDS011;45096;52.302;4.634;2023-07-31T06:38:40;4.45;;;2.15;;
56653;SDS011;45096;52.302;4.634;2023-07-31T06:41:05;7.78;;;2.47;;
56653;SDS011;45096;52.302;4.634;2023-07-31T06:43:31;6.95;;;2.35;;
56653;SDS011;45096;52.302;4.634;2023-07-31T06:45:56;6.47;;;2.60;;
56653;SDS011;45096;52.302;4.634;2023-07-31T06:48:21;3.65;;;2.00;;
56653;SDS011;45096;52.302;4.634;2023-07-31T06:50:48;6.38;;;2.22;;
56653;SDS011;45096;52.302;4.634;2023-07-31T06:53:14;3.67;;;1.83;;
56653;SDS011;45096;52.302;4.634;2023-07-31T06:55:39;16.42;;;9.60;;
56653;SDS011;45096;52.302;4.634;2023-07-31T06:58:04;13.98;;;9.82;;
56653;SDS011;45096;52.302;4.634;2023-07-31T07:00:30;12.00;;;6.03;;
56653;SDS011;45096;52.302;4.634;2023-07-31T07:02:55;6.28;;;4.50;;
56653;SDS011;45096;52.302;4.634;2023-07-31T07:05:21;5.35;;;3.20;;
56653;SDS011;45096;52.302;4.634;2023-07-31T07:07:48;8.88;;;3.15;;
56653;SDS011;45096;52.302;4.634;2023-07-31T07:10:14;6.00;;;2.63;;
56653;SDS011;45096;52.302;4.634;2023-07-31T07:12:39;7.38;;;2.90;;
56653;SDS011;45096;52.302;4.634;2023-07-31T07:15:05;20.58;;;13.35;;
56653;SDS011;45096;52.302;4.634;2023-07-31T07:17:31;36.85;;;26.88;;
56653;SDS011;45096;52.302;4.634;2023-07-31T07:19:57;28.85;;;21.58;;
56653;SDS011;45096;52.302;4.634;2023-07-31T07:22:22;17.95;;;11.45;;
56653;SDS011;45096;52.302;4.634;2023-07-31T07:24:49;13.48;;;8.02;;
56653;SDS011;45096;52.302;4.634;2023-07-31T07:27:14;9.10;;;5.18;;
56653;SDS011;45096;52.302;4.634;2023-07-31T07:29:40;9.63;;;5.60;;
56653;SDS011;45096;52.302;4.634;2023-07-31T07:32:05;8.52;;;4.30;;
56653;SDS011;45096;52.302;4.634;2023-07-31T07:34:31;8.27;;;4.65;;
56653;SDS011;45096;52.302;4.634;2023-07-31T07:36:57;8.70;;;4.65;;
56653;SDS011;45096;52.302;4.634;2023-07-31T07:39:22;25.35;;;16.35;;
56653;SDS011;45096;52.302;4.634;2023-07-31T07:41:49;42.85;;;27.02;;
56653;SDS011;45096;52.302;4.634;2023-07-31T07:44:14;21.65;;;12.60;;
56653;SDS011;45096;52.302;4.634;2023-07-31T07:46:40;11.15;;;7.43;;
56653;SDS011;45096;52.302;4.634;2023-07-31T07:49:05;7.28;;;5.35;;
56653;SDS011;45096;52.302;4.634;2023-07-31T07:51:31;7.72;;;4.53;;
56653;SDS011;45096;52.302;4.634;2023-07-31T07:53:57;12.52;;;5.20;;
56653;SDS011;45096;52.302;4.634;2023-07-31T07:56:22;9.07;;;4.57;;
56653;SDS011;45096;52.302;4.634;2023-07-31T07:58:49;8.00;;;3.63;;
56653;SDS011;45096;52.302;4.634;2023-07-31T08:01:15;9.40;;;3.33;;
56653;SDS011;45096;52.302;4.634;2023-07-31T08:03:40;7.40;;;3.42;;
56653;SDS011;45096;52.302;4.634;2023-07-31T08:06:06;5.78;;;3.13;;
56653;SDS011;45096;52.302;4.634;2023-07-31T08:08:31;6.20;;;3.05;;
56653;SDS011;45096;52.302;4.634;2023-07-31T08:10:57;8.20;;;3.42;;
56653;SDS011;45096;52.302;4.634;2023-07-31T08:13:22;8.35;;;3.38;;
56653;SDS011;45096;52.302;4.634;2023-07-31T08:15:49;7.35;;;3.28;;
56653;SDS011;45096;52.302;4.634;2023-07-31T08:18:14;4.22;;;2.67;;
56653;SDS011;45096;52.302;4.634;2023-07-31T08:20:39;5.43;;;3.58;;
56653;SDS011;45096;52.302;4.634;2023-07-31T08:23:05;10.02;;;5.82;;
56653;SDS011;45096;52.302;4.634;2023-07-31T08:25:30;21.02;;;13.25;;
56653;SDS011;45096;52.302;4.634;2023-07-31T08:27:59;10.23;;;6.20;;
56653;SDS011;45096;52.302;4.634;2023-07-31T08:30:25;8.63;;;3.80;;
56653;SDS011;45096;52.302;4.634;2023-07-31T08:32:51;5.80;;;3.67;;
56653;SDS011;45096;52.302;4.634;2023-07-31T08:35:17;7.88;;;3.20;;
56653;SDS011;45096;52.302;4.634;2023-07-31T08:37:42;7.50;;;3.10;;
56653;SDS011;45096;52.302;4.634;2023-07-31T08:40:08;10.68;;;3.35;;
56653;SDS011;45096;52.302;4.634;2023-07-31T08:42:34;5.40;;;2.83;;
56653;SDS011;45096;52.302;4.634;2023-07-31T08:45:08;8.32;;;3.20;;
56653;SDS011;45096;52.302;4.634;2023-07-31T08:47:34;12.63;;;8.20;;
56653;SDS011;45096;52.302;4.634;2023-07-31T08:50:01;23.60;;;16.95;;
56653;SDS011;45096;52.302;4.634;2023-07-31T08:52:27;18.95;;;13.85;;
56653;SDS011;45096;52.302;4.634;2023-07-31T08:54:53;13.52;;;8.00;;
56653;SDS011;45096;52.302;4.634;2023-07-31T08:57:18;9.38;;;5.05;;
56653;SDS011;45096;52.302;4.634;2023-07-31T08:59:44;16.25;;;4.93;;
56653;SDS011;45096;52.302;4.634;2023-07-31T09:02:10;10.98;;;4.43;;
56653;SDS011;45096;52.302;4.634;2023-07-31T09:04:36;8.00;;;4.40;;
56653;SDS011;45096;52.302;4.634;2023-07-31T09:07:03;10.10;;;3.63;;
56653;SDS011;45096;52.302;4.634;2023-07-31T09:09:29;10.95;;;3.45;;
56653;SDS011;45096;52.302;4.634;2023-07-31T09:11:55;8.48;;;3.60;;
56653;SDS011;45096;52.302;4.634;2023-07-31T09:14:21;8.95;;;3.40;;
56653;SDS011;45096;52.302;4.634;2023-07-31T09:16:53;8.95;;;3.10;;
56653;SDS011;45096;52.302;4.634;2023-07-31T09:19:24;11.40;;;3.45;;
56653;SDS011;45096;52.302;4.634;2023-07-31T09:21:50;13.40;;;4.00;;
56653;SDS011;45096;52.302;4.634;2023-07-31T09:24:19;9.40;;;3.20;;
56653;SDS011;45096;52.302;4.634;2023-07-31T09:26:50;9.57;;;4.03;;
56653;SDS011;45096;52.302;4.634;2023-07-31T09:29:19;11.25;;;3.05;;
56653;SDS011;45096;52.302;4.634;2023-07-31T09:31:46;10.38;;;3.35;;
56653;SDS011;45096;52.302;4.634;2023-07-31T09:34:11;8.13;;;3.70;;
56653;SDS011;45096;52.302;4.634;2023-07-31T09:36:40;9.85;;;2.72;;
56653;SDS011;45096;52.302;4.634;2023-07-31T09:39:06;8.70;;;2.95;;
56653;SDS011;45096;52.302;4.634;2023-07-31T09:41:37;11.65;;;3.55;;
56653;SDS011;45096;52.302;4.634;2023-07-31T09:44:03;9.68;;;3.50;;
56653;SDS011;45096;52.302;4.634;2023-07-31T09:46:28;10.18;;;5.57;;
56653;SDS011;45096;52.302;4.634;2023-07-31T09:49:03;35.22;;;21.45;;
56653;SDS011;45096;52.302;4.634;2023-07-31T09:51:29;20.75;;;10.35;;
56653;SDS011;45096;52.302;4.634;2023-07-31T09:53:54;10.48;;;6.25;;
56653;SDS011;45096;52.302;4.634;2023-07-31T09:56:20;8.35;;;4.22;;
56653;SDS011;45096;52.302;4.634;2023-07-31T09:58:48;11.80;;;3.78;;
56653;SDS011;45096;52.302;4.634;2023-07-31T10:01:13;6.25;;;3.80;;
56653;SDS011;45096;52.302;4.634;2023-07-31T10:03:39;7.47;;;3.33;;
56653;SDS011;45096;52.302;4.634;2023-07-31T10:06:05;4.65;;;2.30;;
56653;SDS011;45096;52.302;4.634;2023-07-31T10:08:32;8.13;;;3.35;;
56653;SDS011;45096;52.302;4.634;2023-07-31T10:10:59;9.75;;;2.85;;
56653;SDS011;45096;52.302;4.634;2023-07-31T10:13:25;8.57;;;3.33;;
56653;SDS011;45096;52.302;4.634;2023-07-31T10:15:54;8.70;;;3.42;;
56653;SDS011;45096;52.302;4.634;2023-07-31T10:18:19;11.25;;;3.38;;
56653;SDS011;45096;52.302;4.634;2023-07-31T10:20:45;9.70;;;3.42;;
56653;SDS011;45096;52.302;4.634;2023-07-31T10:23:12;5.88;;;2.70;;
56653;SDS011;45096;52.302;4.634;2023-07-31T10:25:38;8.65;;;3.30;;
56653;SDS011;45096;52.302;4.634;2023-07-31T10:28:03;14.32;;;3.42;;
56653;SDS011;45096;52.302;4.634;2023-07-31T10:30:29;9.73;;;3.15;;
56653;SDS011;45096;52.302;4.634;2023-07-31T10:32:57;31.58;;;15.35;;
56653;SDS011;45096;52.302;4.634;2023-07-31T10:35:23;14.07;;;8.25;;
56653;SDS011;45096;52.302;4.634;2023-07-31T10:37:49;11.23;;;4.40;;
56653;SDS011;45096;52.302;4.634;2023-07-31T10:40:16;10.68;;;3.67;;
56653;SDS011;45096;52.302;4.634;2023-07-31T10:42:45;9.52;;;3.55;;
56653;SDS011;45096;52.302;4.634;2023-07-31T10:45:12;18.77;;;3.90;;
56653;SDS011;45096;52.302;4.634;2023-07-31T10:47:37;7.93;;;3.50;;
56653;SDS011;45096;52.302;4.634;2023-07-31T10:50:16;9.23;;;3.42;;
56653;SDS011;45096;52.302;4.634;2023-07-31T10:52:44;10.02;;;3.35;;
56653;SDS011;45096;52.302;4.634;2023-07-31T10:55:14;9.40;;;3.78;;
56653;SDS011;45096;52.302;4.634;2023-07-31T10:57:52;8.85;;;2.88;;
56653;SDS011;45096;52.302;4.634;2023-07-31T11:00:19;9.30;;;3.13;;
56653;SDS011;45096;52.302;4.634;2023-07-31T11:02:55;12.55;;;3.58;;
56653;SDS011;45096;52.302;4.634;2023-07-31T11:05:23;7.95;;;2.75;;
56653;SDS011;45096;52.302;4.634;2023-07-31T11:08:09;11.70;;;3.50;;
56653;SDS011;45096;52.302;4.634;2023-07-31T11:10:36;10.60;;;3.60;;
56653;SDS011;45096;52.302;4.634;2023-07-31T11:13:01;9.90;;;3.50;;
56653;SDS011;45096;52.302;4.634;2023-07-31T11:15:29;11.10;;;3.10;;
56653;SDS011;45096;52.302;4.634;2023-07-31T11:17:55;13.30;;;3.28;;
56653;SDS011;45096;52.302;4.634;2023-07-31T11:20:20;7.63;;;2.63;;
56653;SDS011;45096;52.302;4.634;2023-07-31T11:22:47;6.70;;;2.40;;
56653;SDS011;45096;52.302;4.634;2023-07-31T11:25:13;8.32;;;2.53;;
56653;SDS011;45096;52.302;4.634;2023-07-31T11:27:39;10.57;;;3.42;;
56653;SDS011;45096;52.302;4.634;2023-07-31T11:30:05;10.00;;;2.50;;
56653;SDS011;45096;52.302;4.634;2023-07-31T11:32:31;9.70;;;3.10;;
56653;SDS011;45096;52.302;4.634;2023-07-31T11:34:57;11.00;;;2.90;;
56653;SDS011;45096;52.302;4.634;2023-07-31T11:37:23;7.32;;;2.70;;
56653;SDS011;45096;52.302;4.634;2023-07-31T11:39:58;6.68;;;2.60;;
56653;SDS011;45096;52.302;4.634;2023-07-31T11:42:24;11.90;;;2.80;;
56653;SDS011;45096;52.302;4.634;2023-07-31T11:44:50;9.40;;;2.70;;
56653;SDS011;45096;52.302;4.634;2023-07-31T11:47:15;9.75;;;2.53;;
56653;SDS011;45096;52.302;4.634;2023-07-31T11:49:41;7.68;;;3.00;;
56653;SDS011;45096;52.302;4.634;2023-07-31T11:52:07;7.70;;;4.07;;
56653;SDS011;45096;52.302;4.634;2023-07-31T11:54:33;6.47;;;3.78;;
56653;SDS011;45096;52.302;4.634;2023-07-31T11:56:59;7.40;;;3.42;;
56653;SDS011;45096;52.302;4.634;2023-07-31T11:59:24;9.90;;;2.97;;
56653;SDS011;45096;52.302;4.634;2023-07-31T12:01:50;7.97;;;2.35;;
56653;SDS011;45096;52.302;4.634;2023-07-31T12:04:15;7.55;;;2.28;;
56653;SDS011;45096;52.302;4.634;2023-07-31T12:06:41;6.60;;;2.88;;
56653;SDS011;45096;52.302;4.634;2023-07-31T12:09:06;3.75;;;2.45;;
56653;SDS011;45096;52.302;4.634;2023-07-31T12:11:41;6.30;;;2.92;;
56653;SDS011;45096;52.302;4.634;2023-07-31T12:14:07;9.05;;;2.90;;
56653;SDS011;45096;52.302;4.634;2023-07-31T12:16:33;4.25;;;2.55;;
56653;SDS011;45096;52.302;4.634;2023-07-31T12:18:58;6.85;;;3.00;;
56653;SDS011;45096;52.302;4.634;2023-07-31T12:21:23;9.90;;;2.97;;
56653;SDS011;45096;52.302;4.634;2023-07-31T12:23:52;5.30;;;2.75;;
56653;SDS011;45096;52.302;4.634;2023-07-31T12:26:17;6.80;;;1.95;;
56653;SDS011;45096;52.302;4.634;2023-07-31T12:28:45;6.55;;;2.35;;
56653;SDS011;45096;52.302;4.634;2023-07-31T12:31:12;4.13;;;2.47;;
56653;SDS011;45096;52.302;4.634;2023-07-31T12:33:39;5.90;;;2.45;;
56653;SDS011;45096;52.302;4.634;2023-07-31T12:36:07;8.88;;;2.38;;
56653;SDS011;45096;52.302;4.634;2023-07-31T12:38:33;5.18;;;2.42;;
56653;SDS011;45096;52.302;4.634;2023-07-31T12:40:59;7.18;;;2.53;;
56653;SDS011;45096;52.302;4.634;2023-07-31T12:43:24;9.38;;;3.47;;
56653;SDS011;45096;52.302;4.634;2023-07-31T12:45:51;4.40;;;2.58;;
56653;SDS011;45096;52.302;4.634;2023-07-31T12:48:19;8.07;;;2.78;;
56653;SDS011;45096;52.302;4.634;2023-07-31T12:50:44;8.10;;;2.85;;
56653;SDS011;45096;52.302;4.634;2023-07-31T12:53:10;6.75;;;2.83;;
56653;SDS011;45096;52.302;4.634;2023-07-31T12:55:35;5.32;;;2.33;;
56653;SDS011;45096;52.302;4.634;2023-07-31T12:58:01;6.93;;;2.22;;
56653;SDS011;45096;52.302;4.634;2023-07-31T13:00:26;4.97;;;2.25;;
56653;SDS011;45096;52.302;4.634;2023-07-31T13:02:53;5.57;;;2.92;;
56653;SDS011;45096;52.302;4.634;2023-07-31T13:05:18;6.60;;;2.83;;
56653;SDS011;45096;52.302;4.634;2023-07-31T13:07:44;7.43;;;4.38;;
56653;SDS011;45096;52.302;4.634;2023-07-31T13:10:09;5.75;;;3.25;;
56653;SDS011;45096;52.302;4.634;2023-07-31T13:12:35;4.70;;;2.65;;
56653;SDS011;45096;52.302;4.634;2023-07-31T13:15:00;5.78;;;2.42;;
56653;SDS011;45096;52.302;4.634;2023-07-31T13:17:26;4.90;;;1.85;;
56653;SDS011;45096;52.302;4.634;2023-07-31T13:19:52;5.10;;;2.20;;
56653;SDS011;45096;52.302;4.634;2023-07-31T13:22:18;5.97;;;2.13;;
56653;SDS011;45096;52.302;4.634;2023-07-31T13:24:43;5.03;;;2.08;;
56653;SDS011;45096;52.302;4.634;2023-07-31T13:27:09;7.35;;;2.13;;
56653;SDS011;45096;52.302;4.634;2023-07-31T13:29:34;4.10;;;1.55;;
56653;SDS011;45096;52.302;4.634;2023-07-31T13:31:59;4.53;;;1.45;;
56653;SDS011;45096;52.302;4.634;2023-07-31T13:34:25;4.00;;;1.38;;
56653;SDS011;45096;52.302;4.634;2023-07-31T13:36:53;5.03;;;1.63;;
56653;SDS011;45096;52.302;4.634;2023-07-31T13:39:19;1.73;;;1.13;;
56653;SDS011;45096;52.302;4.634;2023-07-31T13:41:44;2.15;;;1.40;;
56653;SDS011;45096;52.302;4.634;2023-07-31T13:44:10;1.23;;;1.10;;
56653;SDS011;45096;52.302;4.634;2023-07-31T13:46:35;3.63;;;1.23;;
56653;SDS011;45096;52.302;4.634;2023-07-31T13:49:00;2.95;;;1.23;;
56653;SDS011;45096;52.302;4.634;2023-07-31T13:51:26;1.38;;;1.27;;
56653;SDS011;45096;52.302;4.634;2023-07-31T13:53:53;2.05;;;1.25;;
56653;SDS011;45096;52.302;4.634;2023-07-31T13:56:18;3.75;;;1.52;;
56653;SDS011;45096;52.302;4.634;2023-07-31T13:58:43;3.10;;;1.45;;
56653;SDS011;45096;52.302;4.634;2023-07-31T14:01:09;3.38;;;1.90;;
56653;SDS011;45096;52.302;4.634;2023-07-31T14:03:34;5.28;;;1.85;;
56653;SDS011;45096;52.302;4.634;2023-07-31T14:06:00;4.90;;;2.00;;
56653;SDS011;45096;52.302;4.634;2023-07-31T14:08:25;2.75;;;1.77;;
56653;SDS011;45096;52.302;4.634;2023-07-31T14:10:52;3.22;;;1.83;;
56653;SDS011;45096;52.302;4.634;2023-07-31T14:13:17;4.20;;;2.30;;
56653;SDS011;45096;52.302;4.634;2023-07-31T14:15:43;6.65;;;2.63;;
56653;SDS011;45096;52.302;4.634;2023-07-31T14:18:09;5.65;;;2.17;;
56653;SDS011;45096;52.302;4.634;2023-07-31T14:20:34;6.53;;;2.25;;
56653;SDS011;45096;52.302;4.634;2023-07-31T14:23:00;8.43;;;2.40;;
56653;SDS011;45096;52.302;4.634;2023-07-31T14:25:25;5.57;;;2.60;;
56653;SDS011;45096;52.302;4.634;2023-07-31T14:27:52;7.80;;;3.20;;
56653;SDS011;45096;52.302;4.634;2023-07-31T14:30:17;10.40;;;6.30;;
56653;SDS011;45096;52.302;4.634;2023-07-31T14:32:43;10.43;;;4.88;;
56653;SDS011;45096;52.302;4.634;2023-07-31T14:35:08;12.20;;;3.80;;